createdAt,value
2019-02-12T00:00:28.050Z,1.30
2019-02-12T00:02:55.200Z,1.42
2019-02-12T00:05:22.362Z,2.08
2019-02-12T00:07:49.194Z,1.35
2019-02-12T00:10:16.347Z,2.10
2019-02-12T00:12:43.199Z,1.30
2019-02-12T00:15:10.338Z,1.42
2019-02-12T00:17:37.490Z,3.55
2019-02-12T00:20:06.067Z,1.22
2019-02-12T00:22:33.019Z,1.42
2019-02-12T00:24:59.865Z,1.82
2019-02-12T00:27:26.707Z,2.10
2019-02-12T00:29:53.863Z,1.02
2019-02-12T00:32:20.702Z,3.62
2019-02-12T00:34:48.076Z,1.30
2019-02-12T00:37:15.018Z,1.50
2019-02-12T00:39:42.151Z,1.00
2019-02-12T00:42:08.995Z,2.15
2019-02-12T00:44:35.884Z,1.12
2019-02-12T00:47:02.684Z,0.95
2019-02-12T00:49:29.524Z,1.87
2019-02-12T00:51:56.674Z,3.90
2019-02-12T00:54:24.173Z,3.72
2019-02-12T00:56:51.286Z,2.02
2019-02-12T00:59:18.434Z,2.40
2019-02-12T01:01:45.277Z,1.22
2019-02-12T01:04:12.427Z,2.65
2019-02-12T01:06:39.578Z,1.40
2019-02-12T01:09:06.729Z,1.30
2019-02-12T01:11:33.879Z,1.70
2019-02-12T01:14:00.722Z,1.27
2019-02-12T01:16:27.570Z,2.25
2019-02-12T01:18:54.716Z,1.15
2019-02-12T01:21:26.178Z,1.87
2019-02-12T01:23:50.246Z,1.85
2019-02-12T01:26:17.403Z,1.62
2019-02-12T01:28:44.303Z,1.60
2019-02-12T01:31:11.132Z,1.98
2019-02-12T01:33:37.972Z,1.90
2019-02-12T01:36:04.770Z,1.60
2019-02-12T01:38:31.614Z,1.85
2019-02-12T01:40:58.771Z,1.00
2019-02-12T01:43:25.915Z,2.15
2019-02-12T01:45:52.759Z,2.37
2019-02-12T01:48:19.604Z,1.80
2019-02-12T01:50:46.447Z,1.22
2019-02-12T01:53:13.290Z,2.08
2019-02-12T01:55:40.176Z,2.37
2019-02-12T01:58:06.976Z,2.50
2019-02-12T02:00:33.964Z,2.25
2019-02-12T02:03:00.968Z,2.55
2019-02-12T02:05:27.812Z,1.67
2019-02-12T02:07:55.271Z,1.12
2019-02-12T02:10:22.113Z,1.37
2019-02-12T02:12:48.955Z,1.20
2019-02-12T02:15:16.364Z,2.08
2019-02-12T02:17:43.257Z,2.27
2019-02-12T02:20:12.865Z,1.60
2019-02-12T02:22:40.018Z,1.75
2019-02-12T02:25:09.318Z,2.02
2019-02-12T02:27:36.204Z,1.80
2019-02-12T02:30:04.541Z,1.75
2019-02-12T02:32:31.383Z,1.72
2019-02-12T02:34:58.533Z,1.12
2019-02-12T02:37:25.376Z,2.05
2019-02-12T02:39:52.231Z,1.98
2019-02-12T02:42:19.168Z,1.70
2019-02-12T02:44:46.213Z,2.10
2019-02-12T02:47:13.058Z,1.10
2019-02-12T02:49:39.900Z,1.17
2019-02-12T02:52:07.094Z,1.95
2019-02-12T02:54:34.201Z,1.85
2019-02-12T02:57:01.046Z,1.52
2019-02-12T02:59:27.890Z,3.30
2019-02-12T03:01:55.038Z,3.55
2019-02-12T03:04:21.885Z,1.52
2019-02-12T03:06:48.725Z,2.62
2019-02-12T03:09:16.797Z,3.10
2019-02-12T03:11:43.644Z,2.77
2019-02-12T03:14:10.485Z,2.70
2019-02-12T03:16:37.652Z,3.02
2019-02-12T03:19:04.480Z,2.27
2019-02-12T03:21:31.328Z,2.25
2019-02-12T03:23:58.471Z,1.50
2019-02-12T03:26:25.281Z,2.15
2019-02-12T03:28:52.173Z,1.57
2019-02-12T03:31:19.315Z,1.75
2019-02-12T03:33:46.154Z,2.75
2019-02-12T03:36:12.995Z,2.30
2019-02-12T03:38:40.148Z,2.17
2019-02-12T03:41:06.989Z,1.30
2019-02-12T03:43:34.139Z,2.58
2019-02-12T03:46:00.985Z,2.00
2019-02-12T03:48:27.831Z,1.70
2019-02-12T03:50:54.978Z,2.22
2019-02-12T03:53:21.819Z,1.98
2019-02-12T03:55:48.670Z,2.37
2019-02-12T03:58:16.121Z,1.52
2019-02-12T04:00:42.992Z,1.98
2019-02-12T04:03:09.814Z,2.87
2019-02-12T04:05:37.907Z,1.45
2019-02-12T04:08:05.031Z,1.55
2019-02-12T04:10:32.181Z,1.75
2019-02-12T04:12:59.245Z,2.10
2019-02-12T04:15:26.174Z,2.72
2019-02-12T04:17:53.017Z,1.42
2019-02-12T04:20:20.167Z,0.88
2019-02-12T04:22:47.319Z,1.45
2019-02-12T04:25:14.169Z,2.00
2019-02-12T04:27:41.313Z,2.50
2019-02-12T04:30:08.465Z,1.95
2019-02-12T04:32:35.614Z,1.50
2019-02-12T04:35:02.459Z,1.90
2019-02-12T04:37:29.349Z,2.47
2019-02-12T04:39:56.143Z,3.10
2019-02-12T04:42:23.009Z,2.62
2019-02-12T04:44:50.138Z,2.85
2019-02-12T04:47:16.981Z,1.57
2019-02-12T04:49:44.142Z,2.58
2019-02-12T04:52:11.286Z,3.05
2019-02-12T04:54:38.432Z,1.82
2019-02-12T04:57:05.583Z,2.12
2019-02-12T04:59:32.741Z,2.62
2019-02-12T05:01:59.885Z,3.00
2019-02-12T05:04:27.341Z,2.40
2019-02-12T05:06:54.492Z,2.33
2019-02-12T05:09:21.644Z,2.12
2019-02-12T05:11:50.025Z,3.58
2019-02-12T05:14:17.176Z,2.17
2019-02-12T05:16:44.331Z,1.98
2019-02-12T05:19:11.473Z,1.92
2019-02-12T05:21:38.626Z,2.37
2019-02-12T05:24:05.789Z,1.98
2019-02-12T05:26:32.926Z,2.65
2019-02-12T05:29:00.077Z,2.33
2019-02-12T05:31:27.226Z,2.65
2019-02-12T05:33:54.070Z,2.35
2019-02-12T05:36:20.913Z,1.32
2019-02-12T05:38:48.063Z,2.15
2019-02-12T05:41:14.907Z,1.98
2019-02-12T05:43:41.750Z,3.10
2019-02-12T05:46:08.900Z,2.77
2019-02-12T05:48:35.744Z,2.02
2019-02-12T05:51:02.604Z,1.65
2019-02-12T05:53:29.737Z,2.20
2019-02-12T05:55:56.586Z,3.72
2019-02-12T05:58:23.424Z,3.20
2019-02-12T06:00:50.574Z,2.40
2019-02-12T06:03:17.417Z,4.28
2019-02-12T06:05:44.306Z,4.30
2019-02-12T06:08:11.411Z,3.47
2019-02-12T06:10:38.307Z,5.65
2019-02-12T06:13:05.100Z,4.53
2019-02-12T06:15:32.250Z,3.15
2019-02-12T06:17:59.031Z,7.17
2019-02-12T06:20:25.948Z,3.60
2019-02-12T06:22:53.089Z,3.72
2019-02-12T06:25:19.930Z,3.10
2019-02-12T06:27:47.082Z,3.52
2019-02-12T06:30:14.237Z,6.22
2019-02-12T06:32:41.383Z,2.80
2019-02-12T06:35:09.146Z,3.72
2019-02-12T06:37:35.989Z,4.37
2019-02-12T06:40:05.293Z,3.60
2019-02-12T06:42:32.133Z,3.58
2019-02-12T06:44:58.977Z,3.58
2019-02-12T06:47:25.952Z,3.35
2019-02-12T06:49:52.970Z,4.58
2019-02-12T06:52:19.814Z,6.10
2019-02-12T06:54:46.701Z,6.10
2019-02-12T06:57:13.502Z,5.83
2019-02-12T06:59:40.388Z,4.47
2019-02-12T07:02:44.409Z,5.00
2019-02-12T07:05:11.511Z,6.95
2019-02-12T07:08:15.524Z,4.15
2019-02-12T07:10:42.371Z,5.00
2019-02-12T07:13:31.329Z,5.05
2019-02-12T07:16:01.247Z,5.22
2019-02-12T07:18:34.846Z,4.67
2019-02-12T07:21:17.400Z,7.72
2019-02-12T07:23:50.651Z,7.90
2019-02-12T07:26:48.831Z,4.33
2019-02-12T07:29:36.051Z,3.67
2019-02-12T07:32:29.518Z,4.62
2019-02-12T07:35:03.085Z,6.85
2019-02-12T07:37:42.567Z,4.80
2019-02-12T07:40:25.088Z,5.30
2019-02-12T07:43:01.450Z,10.30
2019-02-12T07:45:34.544Z,3.75
2019-02-12T07:48:10.817Z,6.72
2019-02-12T07:50:57.498Z,10.60
2019-02-12T07:53:39.848Z,11.20
2019-02-12T07:56:44.127Z,12.98
2019-02-12T07:59:17.422Z,10.23
2019-02-12T08:01:59.932Z,6.65
2019-02-12T08:04:42.445Z,8.28
2019-02-12T08:07:22.201Z,6.25
2019-02-12T08:10:07.465Z,2.50
2019-02-12T08:12:58.887Z,3.67
2019-02-12T08:16:02.904Z,3.55
2019-02-12T08:18:42.385Z,7.28
2019-02-12T08:21:18.748Z,5.03
2019-02-12T08:24:15.084Z,5.53
2019-02-12T08:27:00.806Z,4.20
2019-02-12T08:29:42.824Z,2.98
2019-02-12T08:32:29.667Z,3.62
2019-02-12T08:35:21.671Z,5.58
2019-02-12T08:38:24.458Z,4.75
2019-02-12T08:41:06.665Z,4.33
2019-02-12T08:43:35.492Z,3.05
2019-02-12T08:46:10.484Z,2.87
2019-02-12T08:49:00.983Z,3.60
2019-02-12T08:51:34.591Z,3.35
2019-02-12T08:54:14.068Z,5.55
2019-02-12T08:56:50.699Z,2.45
2019-02-12T08:59:32.948Z,2.80
2019-02-12T09:02:06.195Z,3.77
2019-02-12T09:04:36.729Z,3.92
2019-02-12T09:07:07.254Z,6.80
2019-02-12T09:09:42.392Z,11.68
2019-02-12T09:12:17.228Z,9.15
2019-02-12T09:15:01.578Z,5.05
2019-02-12T09:17:42.859Z,4.90
2019-02-12T09:20:18.004Z,4.40
2019-02-12T09:22:46.832Z,3.47
2019-02-12T09:25:18.753Z,3.43
2019-02-12T09:28:04.377Z,3.77
2019-02-12T09:30:34.554Z,2.50
2019-02-12T09:33:18.908Z,2.70
2019-02-12T09:35:53.742Z,1.13
2019-02-12T09:38:28.876Z,3.10
2019-02-12T09:41:00.944Z,3.37
2019-02-12T09:43:46.832Z,1.97
2019-02-12T09:46:24.734Z,1.73
2019-02-12T09:48:56.801Z,4.00
2019-02-12T09:51:33.167Z,2.70
2019-02-12T09:54:08.767Z,3.07
2019-02-12T09:56:47.748Z,3.67
2019-02-12T09:59:24.110Z,2.10
2019-02-12T10:02:03.326Z,2.50
2019-02-12T10:04:48.365Z,2.80
2019-02-12T10:07:18.784Z,3.77
2019-02-12T10:10:00.943Z,1.53
2019-02-12T10:12:52.383Z,2.80
2019-02-12T10:15:34.874Z,2.77
2019-02-12T10:18:23.528Z,3.27
2019-02-12T10:21:01.752Z,3.00
2019-02-12T10:23:57.766Z,2.37
2019-02-12T10:26:31.368Z,4.00
2019-02-12T10:29:04.882Z,2.33
2019-02-12T10:31:42.566Z,2.10
2019-02-12T10:34:09.984Z,2.83
2019-02-12T10:36:36.867Z,1.43
2019-02-12T10:39:07.088Z,2.70
2019-02-12T10:41:34.038Z,3.70
2019-02-12T10:44:04.751Z,2.20
2019-02-12T10:46:31.616Z,2.27
2019-02-12T10:48:58.455Z,2.20
2019-02-12T10:51:25.298Z,1.20
2019-02-12T10:53:52.184Z,1.90
2019-02-12T10:56:18.985Z,1.70
2019-02-12T10:58:45.828Z,1.77
2019-02-12T11:01:12.978Z,3.20
2019-02-12T11:03:39.822Z,2.63
2019-02-12T11:06:06.973Z,1.83
2019-02-12T11:08:33.818Z,1.67
2019-02-12T11:11:00.969Z,2.13
2019-02-12T11:13:28.117Z,2.73
2019-02-12T11:15:54.961Z,2.50
2019-02-12T11:18:21.808Z,2.60
2019-02-12T11:20:48.955Z,1.37
2019-02-12T11:23:15.843Z,2.97
2019-02-12T11:25:42.645Z,3.10
2019-02-12T11:28:09.791Z,2.33
2019-02-12T11:30:36.634Z,2.40
2019-02-12T11:33:03.785Z,2.30
2019-02-12T11:35:30.936Z,2.63
2019-02-12T11:37:57.780Z,2.57
2019-02-12T11:40:24.938Z,2.23
2019-02-12T11:42:51.816Z,1.93
2019-02-12T11:45:18.616Z,3.03
2019-02-12T11:47:45.767Z,2.50
2019-02-12T11:50:12.611Z,2.57
2019-02-12T11:52:39.453Z,2.30
2019-02-12T11:55:11.829Z,2.10
2019-02-12T11:57:40.517Z,1.60
2019-02-12T12:00:16.880Z,2.90
2019-02-12T12:02:43.726Z,2.60
2019-02-12T12:05:10.566Z,2.20
2019-02-12T12:07:37.716Z,4.30
2019-02-12T12:10:07.676Z,2.27
2019-02-12T12:12:34.782Z,2.63
2019-02-12T12:15:01.634Z,2.20
2019-02-12T12:17:28.469Z,2.40
2019-02-12T12:19:55.620Z,2.33
2019-02-12T12:22:22.475Z,3.30
2019-02-12T12:24:51.509Z,1.83
2019-02-12T12:27:17.993Z,3.13
2019-02-12T12:29:44.837Z,3.30
2019-02-12T12:32:11.987Z,2.83
2019-02-12T12:34:38.885Z,3.03
2019-02-12T12:37:05.674Z,2.87
2019-02-12T12:39:32.823Z,2.80
2019-02-12T12:41:59.667Z,2.30
2019-02-12T12:44:26.818Z,2.17
2019-02-12T12:46:53.661Z,2.57
2019-02-12T12:49:20.504Z,1.80
2019-02-12T12:51:47.678Z,2.60
2019-02-12T12:54:14.498Z,2.07
2019-02-12T12:56:41.389Z,2.17
2019-02-12T12:59:08.497Z,2.90
2019-02-12T13:01:35.343Z,1.50
2019-02-12T13:04:02.485Z,3.20
2019-02-12T13:06:29.330Z,1.60
2019-02-12T13:08:56.173Z,1.77
2019-02-12T13:11:23.324Z,1.83
2019-02-12T13:13:50.166Z,3.00
2019-02-12T13:16:16.986Z,1.67
2019-02-12T13:18:43.852Z,1.93
2019-02-12T13:21:10.696Z,1.80
2019-02-12T13:23:37.634Z,2.13
2019-02-12T13:26:04.692Z,1.97
2019-02-12T13:28:31.533Z,2.70
2019-02-12T13:30:58.684Z,2.20
2019-02-12T13:33:26.600Z,3.20
2019-02-12T13:35:53.907Z,2.40
2019-02-12T13:38:21.059Z,2.70
2019-02-12T13:40:47.900Z,3.47
2019-02-12T13:43:14.791Z,1.63
2019-02-12T13:45:41.586Z,3.03
2019-02-12T13:48:08.430Z,3.70
2019-02-12T13:50:35.580Z,1.70
2019-02-12T13:53:02.424Z,1.37
2019-02-12T13:55:29.269Z,2.80
2019-02-12T13:57:56.417Z,3.10
2019-02-12T14:00:23.261Z,2.80
2019-02-12T14:02:50.106Z,2.90
2019-02-12T14:05:23.176Z,2.33
2019-02-12T14:07:50.241Z,1.53
2019-02-12T14:10:17.399Z,1.70
2019-02-12T14:12:44.239Z,2.20
2019-02-12T14:15:12.504Z,2.70
2019-02-12T14:17:39.458Z,1.47
2019-02-12T14:20:09.327Z,3.20
2019-02-12T14:22:36.218Z,2.47
2019-02-12T14:25:05.724Z,2.10
2019-02-12T14:27:32.672Z,1.80
2019-02-12T14:29:59.516Z,4.13
2019-02-12T14:32:26.423Z,2.30
2019-02-12T14:34:53.244Z,1.97
2019-02-12T14:37:20.047Z,1.73
2019-02-12T14:39:47.023Z,2.33
2019-02-12T14:42:14.037Z,2.10
2019-02-12T14:44:40.879Z,3.00
2019-02-12T14:47:08.029Z,1.30
2019-02-12T14:49:34.872Z,2.00
2019-02-12T14:52:01.715Z,2.77
2019-02-12T14:54:28.866Z,4.00
2019-02-12T14:56:55.709Z,2.87
2019-02-12T14:59:22.859Z,2.23
2019-02-12T15:01:49.703Z,1.90
2019-02-12T15:04:16.545Z,2.70
2019-02-12T15:06:43.697Z,2.70
2019-02-12T15:09:10.540Z,1.50
2019-02-12T15:11:37.383Z,1.67
2019-02-12T15:14:04.536Z,1.97
2019-02-12T15:16:31.377Z,2.53
2019-02-12T15:18:58.231Z,2.30
2019-02-12T15:21:25.374Z,3.00
2019-02-12T15:23:52.225Z,1.63
2019-02-12T15:26:19.058Z,1.97
2019-02-12T15:28:46.207Z,2.20
2019-02-12T15:31:13.359Z,1.70
2019-02-12T15:33:40.510Z,1.87
2019-02-12T15:36:07.659Z,2.33
2019-02-12T15:38:34.503Z,2.50
2019-02-12T15:41:01.347Z,1.30
2019-02-12T15:43:28.497Z,2.60
2019-02-12T15:45:55.651Z,5.50
2019-02-12T15:48:22.798Z,2.60
2019-02-12T15:50:49.955Z,2.13
2019-02-12T15:53:17.100Z,2.97
2019-02-12T15:55:51.105Z,2.90
2019-02-12T15:58:13.243Z,1.70
2019-02-12T16:00:41.461Z,2.40
2019-02-12T16:03:09.386Z,1.90
2019-02-12T16:05:36.537Z,1.83
2019-02-12T16:08:05.131Z,2.07
2019-02-12T16:10:32.683Z,2.43
2019-02-12T16:12:59.833Z,2.57
2019-02-12T16:15:26.678Z,2.33
2019-02-12T16:17:53.519Z,2.90
2019-02-12T16:20:20.362Z,3.60
2019-02-12T16:22:47.127Z,2.80
2019-02-12T16:25:15.337Z,2.10
2019-02-12T16:27:42.429Z,2.93
2019-02-12T16:30:19.106Z,3.57
2019-02-12T16:32:46.252Z,2.00
2019-02-12T16:35:14.949Z,2.13
2019-02-12T16:37:41.792Z,2.13
2019-02-12T16:40:10.413Z,2.07
2019-02-12T16:42:37.312Z,2.23
2019-02-12T16:45:07.843Z,3.90
2019-02-12T16:47:34.735Z,3.47
2019-02-12T16:50:01.529Z,3.47
2019-02-12T16:52:28.374Z,3.23
2019-02-12T16:54:55.214Z,3.20
2019-02-12T16:57:22.058Z,4.27
2019-02-12T16:59:48.903Z,3.27
2019-02-12T17:02:16.053Z,3.00
2019-02-12T17:04:42.897Z,2.17
2019-02-12T17:07:09.738Z,2.00
2019-02-12T17:09:36.890Z,3.23
2019-02-12T17:12:03.737Z,2.00
2019-02-12T17:14:30.576Z,2.30
2019-02-12T17:16:57.727Z,2.73
2019-02-12T17:19:24.878Z,2.43
2019-02-12T17:21:51.720Z,2.80
2019-02-12T17:24:18.870Z,3.00
2019-02-12T17:26:45.633Z,2.57
2019-02-12T17:29:12.557Z,2.60
2019-02-12T17:31:39.713Z,2.83
2019-02-12T17:34:06.857Z,3.70
2019-02-12T17:36:34.319Z,4.07
2019-02-12T17:39:01.465Z,2.57
2019-02-12T17:41:28.615Z,2.67
2019-02-12T17:43:55.766Z,2.40
2019-02-12T17:46:22.917Z,2.30
2019-02-12T17:48:50.067Z,2.43
2019-02-12T17:51:17.217Z,2.47
2019-02-12T17:53:44.367Z,2.50
2019-02-12T17:56:11.519Z,3.02
2019-02-12T17:58:38.671Z,4.10
2019-02-12T18:01:05.820Z,1.87
2019-02-12T18:03:32.913Z,3.52
2019-02-12T18:06:00.125Z,4.60
2019-02-12T18:08:27.271Z,2.73
2019-02-12T18:10:54.421Z,2.80
2019-02-12T18:13:23.229Z,3.83
2019-02-12T18:15:50.260Z,3.20
2019-02-12T18:18:17.409Z,2.85
2019-02-12T18:20:44.560Z,3.60
2019-02-12T18:23:11.711Z,2.93
2019-02-12T18:25:38.752Z,2.40
2019-02-12T18:28:06.027Z,2.75
2019-02-12T18:30:33.161Z,1.98
2019-02-12T18:33:00.312Z,2.47
2019-02-12T18:35:27.463Z,2.98
2019-02-12T18:37:54.352Z,4.08
2019-02-12T18:40:21.149Z,2.95
2019-02-12T18:42:47.913Z,2.90
2019-02-12T18:45:19.488Z,2.55
2019-02-12T18:47:46.288Z,2.87
2019-02-12T18:50:13.140Z,2.80
2019-02-12T18:52:40.022Z,4.92
2019-02-12T18:55:12.040Z,2.80
2019-02-12T18:57:39.190Z,3.47
2019-02-12T19:00:12.485Z,2.83
2019-02-12T19:02:39.328Z,2.60
2019-02-12T19:05:08.028Z,3.62
2019-02-12T19:07:35.517Z,3.12
2019-02-12T19:10:04.179Z,4.75
2019-02-12T19:12:31.002Z,3.33
2019-02-12T19:14:58.153Z,2.72
2019-02-12T19:17:25.040Z,4.20
2019-02-12T19:19:51.839Z,4.83
2019-02-12T19:22:18.683Z,4.17
2019-02-12T19:24:45.572Z,3.22
2019-02-12T19:27:12.360Z,5.47
2019-02-12T19:29:39.213Z,4.35
2019-02-12T19:32:06.363Z,4.17
2019-02-12T19:34:33.207Z,2.98
2019-02-12T19:37:00.052Z,6.65
2019-02-12T19:39:27.202Z,4.62
2019-02-12T19:41:54.044Z,5.17
2019-02-12T19:44:21.193Z,4.08
2019-02-12T19:46:48.042Z,5.17
2019-02-12T19:49:14.881Z,4.90
2019-02-12T19:51:42.073Z,5.37
2019-02-12T19:54:09.332Z,3.77
2019-02-12T19:56:36.439Z,5.30
2019-02-12T19:59:03.793Z,4.95
2019-02-12T20:01:30.942Z,3.70
2019-02-12T20:03:57.787Z,5.35
2019-02-12T20:06:24.627Z,5.08
2019-02-12T20:08:51.784Z,4.90
2019-02-12T20:11:18.621Z,4.75
2019-02-12T20:13:45.466Z,3.85
2019-02-12T20:16:12.615Z,3.95
2019-02-12T20:18:39.767Z,5.65
2019-02-12T20:21:10.044Z,4.37
2019-02-12T20:23:37.147Z,4.03
2019-02-12T20:26:04.291Z,5.90
2019-02-12T20:28:31.133Z,4.92
2019-02-12T20:30:58.283Z,3.90
2019-02-12T20:33:25.128Z,4.87
2019-02-12T20:35:53.816Z,4.53
2019-02-12T20:38:20.709Z,5.62
2019-02-12T20:40:47.807Z,4.12
2019-02-12T20:43:14.650Z,4.17
2019-02-12T20:45:41.548Z,4.22
2019-02-12T20:48:08.386Z,4.53
2019-02-12T20:50:35.494Z,5.45
2019-02-12T20:53:02.332Z,4.72
2019-02-12T20:55:29.482Z,4.30
2019-02-12T20:57:56.632Z,5.87
2019-02-12T21:00:23.783Z,4.20
2019-02-12T21:02:50.625Z,4.42
2019-02-12T21:05:17.847Z,3.12
2019-02-12T21:07:44.928Z,6.65
2019-02-12T21:10:14.229Z,4.72
2019-02-12T21:12:42.608Z,4.90
2019-02-12T21:15:24.813Z,3.70
2019-02-12T21:17:51.962Z,5.42
2019-02-12T21:20:18.893Z,7.62
2019-02-12T21:22:45.956Z,6.25
2019-02-12T21:25:13.107Z,5.17
2019-02-12T21:27:40.265Z,7.45
2019-02-12T21:30:19.387Z,4.55
2019-02-12T21:32:48.080Z,6.53
2019-02-12T21:35:15.235Z,5.30
2019-02-12T21:37:42.376Z,8.05
2019-02-12T21:40:15.361Z,6.03
2019-02-12T21:42:42.512Z,4.92
2019-02-12T21:45:10.542Z,5.37
2019-02-12T21:47:37.427Z,6.15
2019-02-12T21:50:07.650Z,2.67
2019-02-12T21:52:34.801Z,4.03
2019-02-12T21:55:01.643Z,5.40
2019-02-12T21:57:31.918Z,5.83
2019-02-12T21:59:57.176Z,5.08
2019-02-12T22:02:24.327Z,4.80
2019-02-12T22:04:51.474Z,3.67
2019-02-12T22:07:18.317Z,2.87
2019-02-12T22:09:45.162Z,4.08
2019-02-12T22:12:12.004Z,4.58
2019-02-12T22:14:38.847Z,4.42
2019-02-12T22:17:05.690Z,3.58
2019-02-12T22:19:32.841Z,2.67
2019-02-12T22:21:59.684Z,2.45
2019-02-12T22:24:26.529Z,3.47
2019-02-12T22:26:53.683Z,2.30
2019-02-12T22:29:20.522Z,4.62
2019-02-12T22:31:47.494Z,2.72
2019-02-12T22:34:14.515Z,2.77
2019-02-12T22:36:41.666Z,4.40
2019-02-12T22:39:08.830Z,2.95
2019-02-12T22:41:36.574Z,2.62
2019-02-12T22:44:03.425Z,4.60
2019-02-12T22:46:30.575Z,2.52
2019-02-12T22:48:57.421Z,3.35
2019-02-12T22:51:24.261Z,3.52
2019-02-12T22:53:51.412Z,5.75
2019-02-12T22:56:18.264Z,2.67
2019-02-12T22:58:45.417Z,4.37
2019-02-12T23:01:12.556Z,5.97
2019-02-12T23:03:39.402Z,1.92
2019-02-12T23:06:06.551Z,3.35
2019-02-12T23:08:33.399Z,3.45
2019-02-12T23:11:00.243Z,2.70
2019-02-12T23:13:27.388Z,2.12
2019-02-12T23:15:54.276Z,4.22
2019-02-12T23:18:21.077Z,4.58
2019-02-12T23:20:48.233Z,3.55
2019-02-12T23:23:15.095Z,3.10
2019-02-12T23:25:42.218Z,3.98
2019-02-12T23:28:09.369Z,2.83
2019-02-12T23:30:36.216Z,3.95
2019-02-12T23:33:03.368Z,2.35
2019-02-12T23:35:30.514Z,3.58
2019-02-12T23:37:57.404Z,3.83
2019-02-12T23:40:24.200Z,5.03
2019-02-12T23:42:51.050Z,3.45
2019-02-12T23:45:17.887Z,5.03
2019-02-12T23:47:44.730Z,4.28
2019-02-12T23:50:11.885Z,3.90
2019-02-12T23:52:38.724Z,5.30
2019-02-12T23:55:06.386Z,4.17
2019-02-12T23:57:33.332Z,4.83
